Decoded Metar for GMMN (CASABLANCA in MOROCCO) (IATA:CMN) | Meteo·Mobile Aviation Weather
aviador You're here:

GMMN Decoded Metar

CASABLANCA in MOROCCO
Report Time2018-11-16 07:13:00
UTC Time2018-11-16 07:30:54
Flight Rules lifr LIFR
Wind210° at 03 kt
W.Decomp.*RWY 17: 2.2 kt HW 2.0 kt RCW
W.Rank210° ranks 12
Current wind is below 210° avg. (7.4)
Visibility0250 m
Phenomena:Fog
Clouds:Broken 003 Hf
Ceiling300 ft
Temp14°C (ISA 0)
Dew Point14°C (100% RH)
QNH1015 hPa
Density Alt866 ft
Elevation676 ft
Report Wrong Elevation
Raw Report
SPECI GMMN 160713Z 21003KT 0250 R35R/0325N FG BKN003 14/14 Q1015 NOSIG=

Extra information for GMMN:More info

Metar Taf Metar & Taf Last 4 Metars F.Rules Stats Wind Profile Meteogram Temp Stats Airport Information Weather charts Add Link Nearby VenuesMetar ALERT Operation Metar Decoded Social comments